Time;durP1;ratioP1;P1;durP2;ratioP2;P2;SDS_P1;SDS_P2;PMS_P1;PMS_P2;Temp;Humidity;BMP_temperature;BMP_pressure;BME280_temperature;BME280_humidity;BME280_pressure;Samples;Min_cycle;Max_cycle;Signal;HPM_P1;HPM_P2
2023/12/29 00:04:06;;;;;;;10.27;1.23;;;;;;;8.79;72.68;99637.97;10449527;28;20049;-81
2023/12/29 00:09:09;;;;;;;10.15;2.15;;;;;;;8.57;73.72;99642.47;10449989;28;20070;-80
2023/12/29 00:14:13;;;;;;;4.22;0.65;;;;;;;8.34;75.03;99644.38;10445606;28;20044;-81
2023/12/29 00:19:16;;;;;;;4.75;1.30;;;;;;;8.84;73.70;99639.28;10448718;28;20780;-79
2023/12/29 00:24:19;;;;;;;4.72;1.38;;;;;;;8.79;74.18;99641.50;10450932;28;20094;-81
2023/12/29 00:29:24;;;;;;;9.65;1.50;;;;;;;8.66;74.32;99624.78;10437319;28;20070;-80
2023/12/29 00:34:27;;;;;;;4.38;1.33;;;;;;;8.79;74.30;99616.56;10436087;28;20044;-80
2023/12/29 00:39:38;;;;;;;5.65;1.27;;;;;;;9.00;73.57;99629.94;10443620;28;20054;-80
2023/12/29 00:44:43;;;;;;;10.88;1.15;;;;;;;8.67;75.92;99610.44;10432168;28;20049;-80
2023/12/29 00:49:46;;;;;;;6.78;1.73;;;;;;;8.89;75.93;99588.00;10442444;28;20060;-81
2023/12/29 00:54:49;;;;;;;10.88;1.27;;;;;;;8.23;81.90;99608.78;10428910;28;20049;-81
2023/12/29 00:59:54;;;;;;;7.18;1.20;;;;;;;7.71;95.66;99600.59;10455722;28;20059;-80
2023/12/29 01:04:57;;;;;;;6.75;1.50;;;;;;;7.68;96.81;99601.69;10419435;28;20183;-79
2023/12/29 01:10:01;;;;;;;8.25;1.70;;;;;;;7.53;92.68;99581.53;10466166;28;20055;-80
2023/12/29 01:15:06;;;;;;;3.92;1.38;;;;;;;8.14;88.65;99597.88;10444515;28;20573;-81
2023/12/29 01:20:10;;;;;;;7.25;1.40;;;;;;;8.24;87.12;99579.22;10435878;28;20057;-80
2023/12/29 01:25:13;;;;;;;2.15;0.75;;;;;;;8.28;85.82;99586.03;10431384;28;20045;-81
2023/12/29 01:30:20;;;;;;;4.80;1.13;;;;;;;8.07;88.29;99580.66;10452880;28;20056;-81
2023/12/29 01:35:24;;;;;;;6.20;1.30;;;;;;;8.30;88.43;99545.75;10459545;28;20087;-81
2023/12/29 01:40:27;;;;;;;11.10;1.80;;;;;;;8.44;85.74;99558.81;10489064;28;20063;-80
2023/12/29 01:45:32;;;;;;;5.70;1.88;;;;;;;8.41;83.91;99567.09;10454992;28;20071;-81
2023/12/29 01:50:45;;;;;;;13.73;1.40;;;;;;;8.60;81.90;99575.28;10445747;28;20072;-81
2023/12/29 01:55:48;;;;;;;4.50;1.42;;;;;;;8.84;80.72;99545.56;10448406;28;20068;-80
2023/12/29 02:00:53;;;;;;;4.82;0.80;;;;;;;8.75;79.88;99543.69;10465764;28;20156;-81
2023/12/29 02:05:56;;;;;;;7.10;2.08;;;;;;;8.56;80.41;99554.28;10450457;28;20473;-80
2023/12/29 02:11:01;;;;;;;4.85;0.98;;;;;;;8.51;80.09;99532.41;10442579;28;20067;-80
2023/12/29 02:16:13;;;;;;;8.45;1.45;;;;;;;8.84;82.47;99532.16;10452683;28;20054;-79
2023/12/29 02:21:16;;;;;;;7.77;1.50;;;;;;;8.62;82.01;99556.44;10445966;28;20048;-81
2023/12/29 02:26:23;;;;;;;7.20;1.23;;;;;;;9.01;80.49;99529.84;10452382;28;20124;-79
2023/12/29 02:31:30;;;;;;;3.92;0.82;;;;;;;8.64;80.53;99516.13;10455828;28;20048;-81
2023/12/29 02:36:42;;;;;;;4.05;0.88;;;;;;;8.76;79.81;99582.84;10441963;28;20052;-81
2023/12/29 02:41:47;;;;;;;9.35;1.38;;;;;;;8.66;80.31;99544.47;10448348;28;20061;-80
2023/12/29 02:46:50;;;;;;;4.15;1.20;;;;;;;8.72;83.30;99498.44;10455897;28;20044;-80
2023/12/29 02:51:53;;;;;;;2.30;0.70;;;;;;;8.21;87.42;99522.47;10431126;28;20206;-80
2023/12/29 02:56:58;;;;;;;2.15;0.52;;;;;;;7.40;98.77;99533.56;10443925;28;20136;-81
2023/12/29 03:02:01;;;;;;;3.97;1.25;;;;;;;6.99;100.00;99505.75;10447768;28;20072;-80
2023/12/29 03:07:04;;;;;;;3.20;0.80;;;;;;;6.89;100.00;99503.91;10439000;28;20721;-82
2023/12/29 03:12:09;;;;;;;6.30;1.25;;;;;;;6.82;100.00;99492.84;10428894;28;20448;-79
2023/12/29 03:17:13;;;;;;;6.63;1.25;;;;;;;6.79;100.00;99536.63;10422363;28;20189;-80
2023/12/29 03:22:16;;;;;;;8.55;1.40;;;;;;;6.88;100.00;99519.06;10437363;28;20247;-81
2023/12/29 03:27:22;;;;;;;5.25;0.88;;;;;;;6.91;100.00;99508.16;10428315;28;20075;-81
2023/12/29 03:32:25;;;;;;;5.50;1.02;;;;;;;6.85;100.00;99506.78;10459919;28;20068;-80
2023/12/29 03:37:28;;;;;;;5.97;1.13;;;;;;;7.13;100.00;99493.94;10484122;28;20039;-79
2023/12/29 03:42:32;;;;;;;7.90;1.50;;;;;;;7.35;100.00;99481.50;10463575;28;20052;-84
2023/12/29 03:47:36;;;;;;;7.15;1.25;;;;;;;7.42;100.00;99488.88;10440606;28;20102;-82
2023/12/29 03:52:40;;;;;;;5.15;0.90;;;;;;;7.21;100.00;99479.94;10451015;28;20507;-82
2023/12/29 03:57:45;;;;;;;7.55;1.40;;;;;;;7.32;100.00;99461.22;10458278;28;20092;-81
2023/12/29 04:02:48;;;;;;;11.50;1.00;;;;;;;7.18;100.00;99462.34;10460830;28;20118;-82
2023/12/29 04:07:51;;;;;;;2.45;0.75;;;;;;;7.09;100.00;99492.47;10447224;28;20083;-82
2023/12/29 04:12:55;;;;;;;5.88;1.40;;;;;;;7.15;100.00;99483.13;10456118;28;20052;-80
2023/12/29 04:17:59;;;;;;;5.55;1.10;;;;;;;6.92;100.00;99487.66;10460558;28;20049;-82
2023/12/29 04:23:02;;;;;;;4.05;1.45;;;;;;;6.99;100.00;99480.84;10451012;28;20051;-80
2023/12/29 04:28:07;;;;;;;4.63;1.27;;;;;;;6.81;100.00;99489.31;10423588;28;20045;-82
2023/12/29 04:33:10;;;;;;;7.57;3.28;;;;;;;6.42;100.00;99492.44;10448147;28;20604;-80
2023/12/29 04:38:13;;;;;;;7.28;2.15;;;;;;;6.46;100.00;99486.75;10434627;28;20515;-81
2023/12/29 04:43:18;;;;;;;12.57;1.95;;;;;;;6.46;100.00;99475.25;10442251;28;20125;-80
2023/12/29 04:48:21;;;;;;;9.60;2.70;;;;;;;6.60;100.00;99483.00;10441908;28;20037;-82
2023/12/29 04:53:24;;;;;;;6.10;2.25;;;;;;;6.81;100.00;99467.13;10448891;28;20041;-80
2023/12/29 04:58:29;;;;;;;9.27;2.30;;;;;;;6.99;100.00;99472.81;10430515;28;20045;-80
2023/12/29 05:03:33;;;;;;;4.15;1.67;;;;;;;6.93;100.00;99492.00;10448511;28;20055;-81
2023/12/29 05:08:36;;;;;;;6.28;1.88;;;;;;;6.83;100.00;99490.06;10442427;28;20045;-80
2023/12/29 05:13:40;;;;;;;7.35;1.92;;;;;;;6.76;100.00;99479.97;10445168;28;20041;-80
2023/12/29 05:18:43;;;;;;;4.95;1.70;;;;;;;7.14;100.00;99486.78;10472869;28;20051;-79
2023/12/29 05:23:47;;;;;;;7.10;2.33;;;;;;;7.03;100.00;99491.16;10478145;28;20125;-82
2023/12/29 05:28:52;;;;;;;6.10;1.70;;;;;;;7.16;100.00;99485.69;10472726;28;20037;-81
2023/12/29 05:33:55;;;;;;;12.20;2.30;;;;;;;7.52;100.00;99466.75;10440339;28;20432;-81
2023/12/29 05:38:58;;;;;;;9.20;2.00;;;;;;;7.54;100.00;99472.81;10465920;28;20044;-80
2023/12/29 05:44:03;;;;;;;4.85;1.95;;;;;;;7.80;100.00;99478.66;10462984;28;20057;-82
2023/12/29 05:49:06;;;;;;;7.85;1.88;;;;;;;7.68;100.00;99469.84;10448913;28;20045;-82
2023/12/29 05:54:09;;;;;;;3.90;1.27;;;;;;;7.69;100.00;99460.84;10448368;28;20055;-81
2023/12/29 05:59:13;;;;;;;8.95;2.00;;;;;;;7.84;100.00;99486.28;10427980;28;20144;-82
2023/12/29 06:04:17;;;;;;;13.60;1.92;;;;;;;7.90;100.00;99490.28;10485192;28;20877;-82
2023/12/29 06:09:21;;;;;;;8.05;1.77;;;;;;;7.64;100.00;99476.41;10476555;28;20100;-82
2023/12/29 06:14:25;;;;;;;7.78;1.50;;;;;;;8.04;100.00;99476.59;10449527;28;20108;-81
2023/12/29 06:19:29;;;;;;;5.65;1.80;;;;;;;8.16;100.00;99482.72;10456376;28;20045;-81
2023/12/29 06:24:34;;;;;;;4.88;1.35;;;;;;;8.16;99.61;99493.44;10469184;28;20056;-81
2023/12/29 06:29:38;;;;;;;3.25;1.17;;;;;;;7.93;100.00;99519.44;10471312;28;20064;-81
2023/12/29 06:34:41;;;;;;;4.55;1.02;;;;;;;8.05;98.44;99488.16;10459669;28;20045;-82
2023/12/29 06:39:45;;;;;;;3.00;1.45;;;;;;;8.13;98.03;99513.25;10460043;28;20045;-81
2023/12/29 06:44:49;;;;;;;6.03;1.95;;;;;;;8.35;95.61;99476.66;10455013;28;20071;-81
2023/12/29 06:49:53;;;;;;;6.45;1.38;;;;;;;8.23;95.33;99499.09;10426829;28;20048;-81
2023/12/29 06:54:56;;;;;;;8.52;2.45;;;;;;;8.16;95.58;99490.75;10445232;28;20093;-81
2023/12/29 07:00:00;;;;;;;7.70;1.80;;;;;;;8.25;94.54;99523.88;10430649;28;20048;-81
2023/12/29 07:05:04;;;;;;;12.38;1.30;;;;;;;8.23;94.20;99539.22;10452963;28;20679;-81
2023/12/29 07:10:08;;;;;;;4.72;1.38;;;;;;;8.17;94.69;99553.97;10451113;28;20137;-80
2023/12/29 07:15:13;;;;;;;8.55;2.25;;;;;;;8.31;93.25;99542.09;10444617;28;20214;-81
2023/12/29 07:20:16;;;;;;;6.20;1.58;;;;;;;8.31;92.48;99534.94;10447145;28;20985;-81
2023/12/29 07:25:19;;;;;;;4.20;1.30;;;;;;;8.25;92.43;99534.59;10448580;28;20092;-81
2023/12/29 07:30:24;;;;;;;6.80;1.40;;;;;;;8.21;91.12;99535.84;10437903;28;20049;-81
2023/12/29 07:35:27;;;;;;;8.27;1.23;;;;;;;8.46;89.04;99531.97;10434956;28;20051;-81
2023/12/29 07:40:30;;;;;;;14.10;1.58;;;;;;;8.49;88.23;99569.16;10423739;28;20436;-82
2023/12/29 07:45:35;;;;;;;6.55;1.65;;;;;;;8.37;88.24;99552.31;10452407;28;20632;-81
2023/12/29 07:50:38;;;;;;;6.10;1.65;;;;;;;8.48;88.09;99538.03;10440205;28;20748;-80
2023/12/29 07:55:41;;;;;;;6.15;1.30;;;;;;;8.46;86.27;99543.50;10432436;28;20158;-81
2023/12/29 08:00:46;;;;;;;4.22;1.00;;;;;;;8.41;86.89;99548.38;10445760;28;20056;-80
2023/12/29 08:05:49;;;;;;;5.32;1.85;;;;;;;8.50;85.96;99550.31;10431087;28;20063;-80
2023/12/29 08:10:52;;;;;;;7.57;1.67;;;;;;;8.37;85.72;99593.28;10446074;28;20681;-80
2023/12/29 08:15:57;;;;;;;11.68;2.00;;;;;;;8.57;85.16;99554.13;10431703;28;20052;-82
2023/12/29 08:21:00;;;;;;;9.40;1.50;;;;;;;8.85;83.73;99546.41;10444980;28;20040;-81
2023/12/29 08:26:04;;;;;;;8.52;1.23;;;;;;;8.64;85.28;99542.91;10447004;28;20059;-81
2023/12/29 08:31:09;;;;;;;4.20;1.23;;;;;;;8.85;84.26;99543.72;10448556;28;20057;-80
2023/12/29 08:36:13;;;;;;;9.45;2.40;;;;;;;8.62;84.61;99532.34;10429407;28;20037;-80
2023/12/29 08:41:16;;;;;;;9.05;1.38;;;;;;;8.70;90.12;99519.13;10441949;28;21122;-78
2023/12/29 08:46:20;;;;;;;10.95;1.45;;;;;;;7.99;100.00;99526.94;10465479;28;20670;-82
2023/12/29 08:51:23;;;;;;;10.38;1.67;;;;;;;7.30;100.00;99545.16;10485210;28;20113;-81
2023/12/29 08:56:27;;;;;;;2.10;1.00;;;;;;;6.90;100.00;99567.84;10460763;28;20057;-83
2023/12/29 09:01:33;;;;;;;12.52;1.45;;;;;;;6.70;100.00;99557.88;10454028;28;20187;-83
2023/12/29 09:06:36;;;;;;;10.13;1.30;;;;;;;6.23;100.00;99531.22;10424875;28;20048;-84
2023/12/29 09:11:39;;;;;;;8.20;1.98;;;;;;;6.81;100.00;99537.38;10426697;28;20106;-83
2023/12/29 09:16:46;;;;;;;11.45;2.20;;;;;;;6.98;100.00;99544.06;10445392;28;20057;-82
2023/12/29 09:21:49;;;;;;;5.00;1.45;;;;;;;6.65;100.00;99542.22;10440114;28;20159;-82
2023/12/29 09:26:52;;;;;;;6.35;1.05;;;;;;;6.70;100.00;99550.72;10446835;28;20769;-81
2023/12/29 09:31:56;;;;;;;11.15;1.98;;;;;;;6.88;100.00;99534.25;10450652;28;20048;-80
2023/12/29 09:36:59;;;;;;;8.93;2.03;;;;;;;6.89;100.00;99543.97;10440585;28;20053;-82
2023/12/29 09:42:06;;;;;;;7.10;1.67;;;;;;;6.47;100.00;99551.63;10441814;28;20638;-80
2023/12/29 09:47:12;;;;;;;6.70;1.73;;;;;;;6.78;100.00;99556.31;10428303;28;20052;-81
2023/12/29 09:52:17;;;;;;;10.50;2.20;;;;;;;6.63;100.00;99557.47;10444125;28;20060;-80
2023/12/29 09:57:21;;;;;;;6.00;2.22;;;;;;;6.67;100.00;99560.78;10440116;28;20764;-80
2023/12/29 10:02:26;;;;;;;6.20;1.70;;;;;;;6.81;100.00;99542.72;10434777;28;20048;-82
2023/12/29 10:07:32;;;;;;;12.60;2.13;;;;;;;6.81;100.00;99524.03;10415232;28;20049;-81
2023/12/29 10:12:38;;;;;;;4.82;1.35;;;;;;;6.64;100.00;99519.16;10413269;28;21177;-80
2023/12/29 10:17:53;;;;;;;4.32;1.30;;;;;;;6.39;100.00;99541.56;10434903;28;21252;-81
2023/12/29 10:23:06;;;;;;;4.32;1.58;;;;;;;7.00;100.00;99538.63;10418095;28;21239;-82
2023/12/29 10:28:11;;;;;;;6.47;2.03;;;;;;;7.06;100.00;99532.78;10414695;28;20044;-80
2023/12/29 10:33:24;;;;;;;2.53;1.20;;;;;;;6.99;100.00;99532.44;10436998;28;20155;-82
2023/12/29 10:38:27;;;;;;;4.88;1.35;;;;;;;7.29;100.00;99528.25;10424694;28;20056;-81
2023/12/29 10:43:30;;;;;;;5.28;1.35;;;;;;;7.20;100.00;99540.53;10438803;28;20056;-80
2023/12/29 10:48:35;;;;;;;3.65;0.50;;;;;;;7.36;100.00;99531.28;10419288;28;20048;-82
2023/12/29 10:53:38;;;;;;;2.35;0.80;;;;;;;7.61;100.00;99492.72;10449222;28;20044;-82
2023/12/29 10:58:45;;;;;;;1.00;0.45;;;;;;;7.67;100.00;99493.03;10419437;28;21074;-82
2023/12/29 11:03:58;;;;;;;1.75;0.63;;;;;;;7.74;100.00;99493.41;10429737;28;20052;-82
2023/12/29 11:09:02;;;;;;;2.95;0.70;;;;;;;7.84;100.00;99514.84;10430804;28;20132;-80
2023/12/29 11:14:05;;;;;;;0.95;0.77;;;;;;;7.79;100.00;99475.16;10434562;28;20076;-80
2023/12/29 11:19:13;;;;;;;4.82;0.68;;;;;;;8.10;100.00;99508.16;10425498;28;20049;-81
2023/12/29 11:24:16;;;;;;;1.48;0.70;;;;;;;8.10;100.00;99504.66;10416989;28;20113;-82
2023/12/29 11:29:29;;;;;;;1.20;0.50;;;;;;;7.90;100.00;99498.31;10433782;28;20075;-81
2023/12/29 11:34:39;;;;;;;2.15;0.90;;;;;;;8.05;100.00;99513.06;10432862;28;20045;-81
2023/12/29 11:39:52;;;;;;;3.08;0.75;;;;;;;7.80;100.00;99518.78;10428599;28;20076;-82
2023/12/29 11:44:55;;;;;;;1.38;0.68;;;;;;;7.47;100.00;99515.22;10432944;28;20045;-84
2023/12/29 11:50:03;;;;;;;2.30;0.90;;;;;;;7.32;100.00;99492.44;10438516;28;20044;-83
2023/12/29 11:55:10;;;;;;;1.27;0.68;;;;;;;6.98;100.00;99495.16;10444194;28;20128;-83
2023/12/29 12:00:15;;;;;;;0.75;0.65;;;;;;;7.42;100.00;99478.19;10427341;28;20566;-83
2023/12/29 12:05:45;;;;;;;3.05;1.20;;;;;;;7.68;100.00;99504.59;10437780;28;20049;-81
2023/12/29 12:10:50;;;;;;;0.75;0.60;;;;;;;7.64;100.00;99493.31;10417037;28;20044;-81
2023/12/29 12:15:53;;;;;;;2.75;1.35;;;;;;;7.78;100.00;99489.47;10415419;28;20049;-82
2023/12/29 12:20:59;;;;;;;1.40;0.80;;;;;;;7.70;100.00;99492.78;10457481;28;20044;-80
2023/12/29 12:26:03;;;;;;;1.33;0.90;;;;;;;7.93;100.00;99504.25;10442524;28;21204;-81
2023/12/29 12:31:08;;;;;;;0.75;0.75;;;;;;;7.92;100.00;99512.38;10423001;28;20392;-82
2023/12/29 12:36:13;;;;;;;2.97;1.83;;;;;;;7.68;100.00;99513.47;10446775;28;20893;-79
2023/12/29 12:41:16;;;;;;;0.82;0.82;;;;;;;7.91;100.00;99502.69;10444893;28;20048;-81
2023/12/29 12:46:24;;;;;;;1.92;1.17;;;;;;;8.02;100.00;99504.44;10420323;28;20049;-81
2023/12/29 12:51:29;;;;;;;2.65;0.80;;;;;;;8.01;100.00;99508.09;10417134;28;20049;-80
2023/12/29 12:56:32;;;;;;;1.17;0.70;;;;;;;8.08;100.00;99512.78;10425203;28;20041;-82
2023/12/29 13:01:37;;;;;;;2.47;1.00;;;;;;;8.23;100.00;99504.44;10454442;28;20041;-79
2023/12/29 13:06:44;;;;;;;2.75;0.95;;;;;;;8.45;100.00;99498.97;10425752;28;20673;-81
2023/12/29 13:11:51;;;;;;;1.92;1.27;;;;;;;8.66;100.00;99490.06;10409831;28;20060;-80
2023/12/29 13:16:54;;;;;;;1.60;0.80;;;;;;;8.50;100.00;99469.13;10427390;28;20515;-80
2023/12/29 13:21:58;;;;;;;4.40;0.90;;;;;;;8.58;100.00;99445.22;10434152;28;20045;-79
2023/12/29 13:27:05;;;;;;;1.63;0.68;;;;;;;8.62;100.00;99486.81;10425366;28;20720;-79
2023/12/29 13:32:14;;;;;;;1.65;0.90;;;;;;;8.53;100.00;99491.16;10434665;28;20052;-82
2023/12/29 13:37:26;;;;;;;2.05;0.93;;;;;;;8.74;100.00;99479.53;10408753;28;20056;-81
2023/12/29 13:42:33;;;;;;;1.75;0.98;;;;;;;8.50;100.00;99466.47;10416937;28;20045;-79
2023/12/29 13:47:37;;;;;;;1.80;0.90;;;;;;;8.68;100.00;99466.69;10426587;28;20571;-80
2023/12/29 13:52:42;;;;;;;2.85;1.50;;;;;;;8.79;100.00;99471.97;10429350;28;20047;-82
2023/12/29 13:57:45;;;;;;;1.25;0.68;;;;;;;8.49;100.00;99487.03;10423930;28;20862;-80
2023/12/29 14:02:58;;;;;;;3.55;1.27;;;;;;;8.75;100.00;99468.72;10430720;28;20041;-81
2023/12/29 14:08:10;;;;;;;1.80;0.77;;;;;;;8.65;99.26;99469.66;10424520;28;20057;-79
2023/12/29 14:13:16;;;;;;;4.05;1.30;;;;;;;8.56;99.96;99448.06;10428518;28;20045;-79
2023/12/29 14:18:47;;;;;;;6.05;2.03;;;;;;;8.64;99.55;99470.63;10425136;28;20105;-80
2023/12/29 14:24:09;;;;;;;6.80;1.33;;;;;;;8.69;99.38;99487.97;10424819;28;20083;-81
2023/12/29 14:29:13;;;;;;;3.60;0.90;;;;;;;8.67;99.88;99484.59;10432215;28;20036;-80
2023/12/29 14:34:16;;;;;;;4.07;2.00;;;;;;;8.83;97.47;99458.16;10430841;28;20133;-81
2023/12/29 14:39:20;;;;;;;6.15;1.27;;;;;;;8.63;97.52;99479.63;10426836;28;20056;-79
2023/12/29 14:44:25;;;;;;;4.47;1.58;;;;;;;8.63;97.14;99467.09;10427192;28;20624;-80
2023/12/29 14:49:28;;;;;;;3.13;1.40;;;;;;;8.94;96.46;99467.94;10431240;28;20790;-81
2023/12/29 14:54:32;;;;;;;3.80;1.55;;;;;;;8.75;96.07;99458.00;10422493;28;20060;-79
2023/12/29 14:59:36;;;;;;;5.15;1.40;;;;;;;9.03;94.51;99459.06;10427113;28;20080;-81
2023/12/29 15:04:39;;;;;;;1.52;1.00;;;;;;;8.75;94.01;99473.19;10429094;28;20056;-81
2023/12/29 15:09:43;;;;;;;4.05;0.82;;;;;;;8.52;94.53;99489.44;10414769;28;20044;-81
2023/12/29 15:14:46;;;;;;;2.15;1.08;;;;;;;8.22;98.68;99489.38;10460844;28;20079;-79
2023/12/29 15:19:49;;;;;;;3.90;1.98;;;;;;;8.06;97.82;99495.19;10430243;28;20428;-81
2023/12/29 15:24:54;;;;;;;2.28;0.52;;;;;;;8.06;98.19;99479.97;10409048;28;20530;-79
2023/12/29 15:29:57;;;;;;;2.10;0.80;;;;;;;8.28;97.84;99465.63;10425936;28;20289;-79
2023/12/29 15:35:00;;;;;;;2.30;0.60;;;;;;;7.79;100.00;99468.94;10437341;28;20052;-81
2023/12/29 15:40:05;;;;;;;3.13;1.20;;;;;;;7.84;100.00;99470.25;10451683;28;20059;-79
2023/12/29 15:45:10;;;;;;;4.80;1.00;;;;;;;7.87;100.00;99469.13;10447326;28;20056;-80
2023/12/29 15:50:13;;;;;;;4.30;1.08;;;;;;;7.40;100.00;99487.31;10424336;28;20049;-81
2023/12/29 15:55:17;;;;;;;4.45;1.70;;;;;;;7.39;100.00;99483.78;10418758;28;20052;-79
2023/12/29 16:00:22;;;;;;;5.13;1.50;;;;;;;6.99;100.00;99481.69;10416325;28;20045;-82
2023/12/29 16:05:25;;;;;;;4.57;1.23;;;;;;;7.00;100.00;99485.22;10440719;28;20104;-82
2023/12/29 16:10:30;;;;;;;2.72;1.25;;;;;;;6.95;100.00;99474.06;10411383;28;20064;-81
2023/12/29 16:15:33;;;;;;;5.28;1.63;;;;;;;7.07;100.00;99494.41;10431591;28;20054;-80
2023/12/29 16:20:36;;;;;;;3.15;1.50;;;;;;;6.87;100.00;99481.78;10422958;28;20037;-80
2023/12/29 16:25:40;;;;;;;3.80;1.48;;;;;;;6.61;100.00;99471.38;10416503;28;20096;-80
2023/12/29 16:30:43;;;;;;;1.15;1.05;;;;;;;6.45;100.00;99449.56;10415060;28;20187;-82
2023/12/29 16:35:46;;;;;;;5.03;1.80;;;;;;;6.33;100.00;99470.00;10413097;28;20053;-81
2023/12/29 16:40:51;;;;;;;5.18;1.23;;;;;;;6.77;100.00;99461.16;10406844;28;20040;-82
2023/12/29 16:45:54;;;;;;;2.90;1.73;;;;;;;6.80;100.00;99457.41;10424270;28;20057;-81
2023/12/29 16:50:58;;;;;;;5.95;2.20;;;;;;;6.84;100.00;99456.19;10409096;28;20118;-81
2023/12/29 16:56:02;;;;;;;3.05;2.65;;;;;;;7.36;100.00;99437.78;10422270;28;20850;-81
2023/12/29 17:01:05;;;;;;;5.63;3.70;;;;;;;7.15;100.00;99429.69;10417173;28;20052;-81
2023/12/29 17:06:08;;;;;;;6.93;3.90;;;;;;;7.21;100.00;99414.03;10426294;28;20044;-81
2023/12/29 17:11:13;;;;;;;6.35;4.45;;;;;;;7.14;100.00;99404.81;10412691;28;20103;-82
2023/12/29 17:16:17;;;;;;;5.45;4.82;;;;;;;7.36;100.00;99397.72;10424068;28;21250;-81
2023/12/29 17:21:20;;;;;;;9.85;5.28;;;;;;;7.44;100.00;99413.94;10407476;28;20060;-81
2023/12/29 17:26:25;;;;;;;7.35;5.88;;;;;;;6.97;100.00;99406.22;10470767;28;20045;-83
2023/12/29 17:31:28;;;;;;;6.72;5.10;;;;;;;7.47;100.00;99395.00;10420157;28;20044;-81
2023/12/29 17:36:31;;;;;;;7.65;3.25;;;;;;;7.12;100.00;99408.59;10441771;28;20152;-82
2023/12/29 17:41:35;;;;;;;4.70;3.25;;;;;;;7.44;100.00;99416.63;10430768;28;20058;-81
2023/12/29 17:46:38;;;;;;;3.08;2.30;;;;;;;7.22;100.00;99413.06;10410019;28;20114;-83
2023/12/29 17:51:41;;;;;;;2.60;2.38;;;;;;;7.16;100.00;99421.56;10413576;28;20423;-80
2023/12/29 17:56:46;;;;;;;4.72;2.83;;;;;;;7.43;100.00;99412.25;10428529;28;20187;-83
2023/12/29 18:01:50;;;;;;;4.68;2.50;;;;;;;7.54;100.00;99406.84;10416698;28;20049;-83
2023/12/29 18:06:53;;;;;;;2.85;2.30;;;;;;;7.72;100.00;99407.97;10435506;28;20059;-83
2023/12/29 18:12:12;;;;;;;5.75;2.92;;;;;;;7.42;100.00;99391.84;10425342;28;20186;-81
2023/12/29 18:17:16;;;;;;;2.72;2.53;;;;;;;7.68;100.00;99419.91;10421478;28;20049;-81
2023/12/29 18:22:18;;;;;;;4.22;2.83;;;;;;;7.48;100.00;99418.03;10419271;28;20053;-81
2023/12/29 18:27:23;;;;;;;2.33;2.13;;;;;;;7.58;100.00;99415.47;10432739;28;20071;-82
2023/12/29 18:32:26;;;;;;;3.45;2.53;;;;;;;7.47;100.00;99393.16;10434083;28;20061;-82
2023/12/29 18:37:30;;;;;;;5.65;2.42;;;;;;;7.46;100.00;99404.84;10408788;28;20037;-81
2023/12/29 18:42:34;;;;;;;2.55;1.55;;;;;;;7.77;100.00;99390.72;10420720;28;20052;-81
2023/12/29 18:47:38;;;;;;;5.53;2.78;;;;;;;7.93;100.00;99367.88;10425730;28;20047;-79
2023/12/29 18:52:43;;;;;;;3.78;2.88;;;;;;;8.02;100.00;99368.91;10408210;28;20041;-81
2023/12/29 18:57:47;;;;;;;3.00;2.35;;;;;;;7.65;100.00;99377.41;10425797;28;20064;-80
2023/12/29 19:02:51;;;;;;;4.22;2.60;;;;;;;7.81;100.00;99390.28;10423000;28;20052;-81
2023/12/29 19:07:54;;;;;;;4.90;2.17;;;;;;;8.04;100.00;99368.78;10413262;28;20140;-81
2023/12/29 19:12:58;;;;;;;1.55;1.33;;;;;;;7.84;100.00;99374.00;10436254;28;20036;-82
2023/12/29 19:18:07;;;;;;;1.60;1.25;;;;;;;8.06;100.00;99364.13;10440373;28;20064;-79
2023/12/29 19:23:10;;;;;;;2.03;1.70;;;;;;;7.82;100.00;99353.75;10426273;28;20190;-78
2023/12/29 19:28:14;;;;;;;1.90;1.00;;;;;;;7.99;100.00;99352.28;10425456;28;20051;-81
2023/12/29 19:33:17;;;;;;;3.83;1.60;;;;;;;7.84;100.00;99362.44;10432254;28;20789;-80
2023/12/29 19:38:22;;;;;;;3.40;1.67;;;;;;;8.17;100.00;99332.81;10442217;28;20049;-81
2023/12/29 19:43:27;;;;;;;2.03;1.20;;;;;;;7.82;100.00;99349.22;10429168;28;20041;-79
2023/12/29 19:48:30;;;;;;;7.45;1.83;;;;;;;7.58;100.00;99391.41;10428807;28;20123;-79
2023/12/29 19:53:33;;;;;;;3.42;1.55;;;;;;;6.58;100.00;99431.56;10432891;28;20050;-81
2023/12/29 19:58:38;;;;;;;1.38;1.23;;;;;;;6.49;100.00;99443.81;10422838;28;20036;-82
2023/12/29 20:03:41;;;;;;;3.53;0.50;;;;;;;5.41;100.00;99469.03;10441526;28;20056;-82
2023/12/29 20:08:44;;;;;;;0.60;0.60;;;;;;;5.60;100.00;99480.00;10430709;28;20049;-82
2023/12/29 20:13:50;;;;;;;3.20;0.50;;;;;;;5.55;100.00;99476.81;10426459;28;20041;-83
2023/12/29 20:18:54;;;;;;;0.65;0.40;;;;;;;5.40;100.00;99477.94;10409713;28;20036;-83
2023/12/29 20:23:58;;;;;;;2.03;0.60;;;;;;;5.93;100.00;99449.94;10409659;28;20041;-83
2023/12/29 20:29:05;;;;;;;6.97;0.55;;;;;;;5.85;100.00;99464.84;10404678;28;20059;-82
2023/12/29 20:34:08;;;;;;;1.45;0.70;;;;;;;5.86;100.00;99463.84;10408925;28;20127;-82
2023/12/29 20:39:11;;;;;;;1.90;0.52;;;;;;;6.01;100.00;99464.53;10402908;28;20084;-82
2023/12/29 20:44:16;;;;;;;3.40;0.60;;;;;;;5.63;100.00;99497.56;10428392;28;20049;-82
2023/12/29 20:49:19;;;;;;;2.15;0.77;;;;;;;5.68;100.00;99506.06;10440350;28;21133;-83
2023/12/29 20:54:22;;;;;;;0.57;0.28;;;;;;;5.33;100.00;99492.69;10428739;28;20056;-82
2023/12/29 20:59:26;;;;;;;0.70;0.65;;;;;;;5.39;100.00;99526.88;10419996;28;20069;-82
2023/12/29 21:04:29;;;;;;;1.40;0.90;;;;;;;5.68;100.00;99524.72;10442190;28;20044;-83
2023/12/29 21:09:32;;;;;;;1.73;0.60;;;;;;;5.49;100.00;99539.41;10406086;28;20044;-83
2023/12/29 21:14:37;;;;;;;6.85;1.02;;;;;;;5.41;100.00;99549.75;10427423;28;20079;-82
2023/12/29 21:19:40;;;;;;;2.70;1.30;;;;;;;5.32;100.00;99562.88;10413618;28;20652;-82
2023/12/29 21:24:44;;;;;;;4.82;1.17;;;;;;;5.76;100.00;99549.00;10428437;28;20041;-81
2023/12/29 21:29:53;;;;;;;2.70;1.02;;;;;;;5.85;100.00;99547.44;10429466;28;20568;-83
2023/12/29 21:34:58;;;;;;;2.92;0.90;;;;;;;5.50;100.00;99558.88;10409062;28;20071;-81
2023/12/29 21:40:01;;;;;;;5.20;1.13;;;;;;;5.86;100.00;99544.66;10408895;28;20053;-82
2023/12/29 21:45:09;;;;;;;5.90;1.52;;;;;;;5.75;100.00;99547.28;10431142;28;21173;-81
2023/12/29 21:50:12;;;;;;;3.33;1.25;;;;;;;5.67;100.00;99537.19;10453852;28;20451;-83
2023/12/29 21:55:18;;;;;;;8.60;1.83;;;;;;;5.84;100.00;99562.59;10429685;28;20454;-81
2023/12/29 22:00:22;;;;;;;3.92;1.90;;;;;;;6.20;100.00;99539.47;10427293;28;20041;-83
2023/12/29 22:05:26;;;;;;;6.05;1.05;;;;;;;6.08;100.00;99551.03;10449851;28;20191;-82
2023/12/29 22:10:30;;;;;;;7.10;2.30;;;;;;;6.03;100.00;99551.38;10421274;28;20516;-81
2023/12/29 22:15:34;;;;;;;7.97;2.30;;;;;;;6.23;100.00;99549.91;10428663;28;20045;-81
2023/12/29 22:20:37;;;;;;;7.15;2.25;;;;;;;6.68;100.00;99544.63;10418964;28;20044;-82
2023/12/29 22:25:42;;;;;;;4.55;2.28;;;;;;;6.54;100.00;99553.72;10405233;28;20044;-81
2023/12/29 22:30:48;;;;;;;3.80;2.00;;;;;;;6.18;100.00;99557.38;10430740;28;20044;-80
2023/12/29 22:35:51;;;;;;;5.82;1.98;;;;;;;6.47;100.00;99563.16;10414655;28;20179;-80
2023/12/29 22:40:54;;;;;;;7.00;1.58;;;;;;;6.50;100.00;99565.59;10432761;28;20041;-81
2023/12/29 22:45:59;;;;;;;5.75;1.80;;;;;;;6.34;100.00;99563.25;10432489;28;20044;-81
2023/12/29 22:51:04;;;;;;;4.72;1.40;;;;;;;5.88;100.00;99576.53;10423072;28;20045;-83
2023/12/29 22:56:07;;;;;;;8.38;1.42;;;;;;;5.44;100.00;99578.84;10440131;28;20087;-84
2023/12/29 23:01:12;;;;;;;6.50;1.83;;;;;;;5.72;100.00;99590.13;10401707;28;20139;-85
2023/12/29 23:06:15;;;;;;;2.85;1.10;;;;;;;5.45;100.00;99617.81;10414269;28;20052;-84
2023/12/29 23:11:18;;;;;;;1.55;0.80;;;;;;;5.08;100.00;99608.09;10430723;28;20056;-83
2023/12/29 23:16:23;;;;;;;1.52;0.90;;;;;;;4.90;100.00;99600.41;10452060;28;20152;-84
2023/12/29 23:21:26;;;;;;;4.45;0.60;;;;;;;4.52;100.00;99600.38;10445649;28;20053;-84
2023/12/29 23:26:29;;;;;;;2.17;0.40;;;;;;;4.52;100.00;99611.88;10432782;28;20053;-83
2023/12/29 23:31:33;;;;;;;1.77;0.55;;;;;;;4.51;100.00;99583.59;10431003;28;20056;-84
2023/12/29 23:36:37;;;;;;;0.98;0.70;;;;;;;4.39;100.00;99598.59;10430317;28;20036;-83
2023/12/29 23:41:40;;;;;;;3.67;0.80;;;;;;;4.71;100.00;99581.34;10416654;28;20048;-83